PWSweather.com
Personal Weather Stations
Station Observations
KCOBLACK1
Chalet Park, Black Hawk, CO 80422

Chalet ParkBlack Hawk, CO 80422

Lat: 39.8294, Lon: -105.48

Elevation: 9370

Station Type: Vantage Pro2

http://www.oscaranddeb.com/weather

Latest ConditionsUpdated 11:45:00 PM MDT Saturday, Mar 23, 2019
Currently Today's Max Today's Min Today's Average
Temperature 27.7°F-2.4°C 34.7°F1.5°C 25.2°F-3.8°C 28.3°F-2.1°C
Dew Point 15.7°F-9.1°C 19.1°F-7.2°C 14.5°F-9.7°C 16.7°F-8.5°C
Winds 8.0 mph NNW12.9 kmh NNW 22.0 mph -35.4 kmh - - 13.2 mph 21.2 kmh
Wind Gusts 13.0 mph20.9 kmh 51.0 mph82.1 kmh - -
Humidity 60% 70% 48% 62%
Pressure 30.10 in1019.3 mb 30.10 in1019.3 mb 29.81 in1009.5 mb -
Precipitation - 0.01 in0.3 mm - -
Hour Temp Dew Point Humidity Winds Wind Gusts Pressure Precip Precip Rate Daily Precip Total
11:45 PM 27.7°F-2.4°C 15.7°F-9.1°C 60% 8.0 mph NNW12.9 kmh NNW 13.0 mph20.9 kmh 30.10 in1019.3 mb 0.00 in0.0 mm 0.00 in0.0 mm 0.01 in0.3 mm
11:40 PM 27.6°F-2.4°C 15.9°F-8.9°C 61% 7.0 mph NNW11.3 kmh NNW 14.0 mph22.5 kmh 30.09 in1019.0 mb 0.00 in0.0 mm 0.00 in0.0 mm 0.01 in0.3 mm
11:35 PM 27.7°F-2.4°C 16.0°F-8.9°C 61% 4.0 mph 6.4 kmh 10.0 mph16.1 kmh 30.10 in1019.3 mb 0.00 in0.0 mm 0.00 in0.0 mm 0.01 in0.3 mm
11:30 PM 27.9°F-2.3°C 15.8°F-9.0°C 60% 7.0 mph NW11.3 kmh NW 13.0 mph20.9 kmh 30.10 in1019.3 mb 0.00 in0.0 mm 0.00 in0.0 mm 0.01 in0.3 mm
11:25 PM 27.9°F-2.3°C 16.2°F-8.8°C 61% 6.0 mph NNW9.7 kmh NNW 11.0 mph17.7 kmh 30.10 in1019.3 mb 0.00 in0.0 mm 0.00 in0.0 mm 0.01 in0.3 mm
11:20 PM 27.9°F-2.3°C 16.2°F-8.8°C 61% 7.0 mph NNW11.3 kmh NNW 13.0 mph20.9 kmh 30.10 in1019.3 mb 0.00 in0.0 mm 0.00 in0.0 mm 0.01 in0.3 mm
11:15 PM 27.8°F-2.3°C 16.5°F-8.6°C 62% 7.0 mph NNW11.3 kmh NNW 12.0 mph19.3 kmh 30.10 in1019.3 mb 0.00 in0.0 mm 0.00 in0.0 mm 0.01 in0.3 mm
11:10 PM 27.9°F-2.3°C 16.6°F-8.6°C 62% 5.0 mph NW8.0 kmh NW 11.0 mph17.7 kmh 30.10 in1019.3 mb 0.00 in0.0 mm 0.00 in0.0 mm 0.01 in0.3 mm
11:05 PM 28.0°F-2.2°C 16.7°F-8.5°C 62% 6.0 mph NNW9.7 kmh NNW 12.0 mph19.3 kmh 30.10 in1019.3 mb 0.00 in0.0 mm 0.00 in0.0 mm 0.01 in0.3 mm
11:00 PM 28.1°F-2.2°C 16.8°F-8.4°C 62% 9.0 mph 14.5 kmh 20.0 mph32.2 kmh 30.10 in1019.3 mb 0.00 in0.0 mm 0.00 in0.0 mm 0.01 in0.3 mm
10:55 PM 28.1°F-2.2°C 16.4°F-8.7°C 61% 7.0 mph NNW11.3 kmh NNW 16.0 mph25.7 kmh 30.09 in1019.0 mb 0.00 in0.0 mm 0.00 in0.0 mm 0.01 in0.3 mm
10:50 PM 28.1°F-2.2°C 16.4°F-8.7°C 61% 9.0 mph 14.5 kmh 18.0 mph29.0 kmh 30.09 in1019.0 mb 0.00 in0.0 mm 0.00 in0.0 mm 0.01 in0.3 mm
10:45 PM 28.2°F-2.1°C 16.5°F-8.6°C 61% 9.0 mph NNW14.5 kmh NNW 15.0 mph24.1 kmh 30.09 in1019.0 mb 0.00 in0.0 mm 0.00 in0.0 mm 0.01 in0.3 mm
10:40 PM 28.1°F-2.2°C 16.4°F-8.7°C 61% 9.0 mph NNW14.5 kmh NNW 17.0 mph27.4 kmh 30.09 in1019.0 mb 0.00 in0.0 mm 0.00 in0.0 mm 0.01 in0.3 mm
10:35 PM 28.1°F-2.2°C 16.4°F-8.7°C 61% 8.0 mph 12.9 kmh 15.0 mph24.1 kmh 30.09 in1019.0 mb 0.00 in0.0 mm 0.00 in0.0 mm 0.01 in0.3 mm
10:30 PM 28.1°F-2.2°C 16.8°F-8.4°C 62% 9.0 mph 14.5 kmh 21.0 mph33.8 kmh 30.09 in1019.0 mb 0.00 in0.0 mm 0.00 in0.0 mm 0.01 in0.3 mm
10:25 PM 27.8°F-2.3°C 16.5°F-8.6°C 62% 8.0 mph 12.9 kmh 22.0 mph35.4 kmh 30.09 in1019.0 mb 0.00 in0.0 mm 0.00 in0.0 mm 0.01 in0.3 mm
10:20 PM 27.8°F-2.3°C 16.5°F-8.6°C 62% 5.0 mph NNE8.0 kmh NNE 12.0 mph19.3 kmh 30.09 in1019.0 mb 0.00 in0.0 mm 0.00 in0.0 mm 0.01 in0.3 mm
10:15 PM 28.0°F-2.2°C 16.3°F-8.7°C 61% 8.0 mph 12.9 kmh 16.0 mph25.7 kmh 30.09 in1019.0 mb 0.00 in0.0 mm 0.00 in0.0 mm 0.01 in0.3 mm
10:10 PM 28.0°F-2.2°C 16.7°F-8.5°C 62% 8.0 mph NNW12.9 kmh NNW 14.0 mph22.5 kmh 30.09 in1019.0 mb 0.00 in0.0 mm 0.00 in0.0 mm 0.01 in0.3 mm
10:05 PM 28.0°F-2.2°C 16.7°F-8.5°C 62% 7.0 mph 11.3 kmh 16.0 mph25.7 kmh 30.09 in1019.0 mb 0.00 in0.0 mm 0.00 in0.0 mm 0.01 in0.3 mm
10:00 PM 28.2°F-2.1°C 16.5°F-8.6°C 61% 8.0 mph NNE12.9 kmh NNE 19.0 mph30.6 kmh 30.09 in1019.0 mb 0.00 in0.0 mm 0.00 in0.0 mm 0.01 in0.3 mm
09:55 PM 28.3°F-2.1°C 16.6°F-8.6°C 61% 11.0 mph 17.7 kmh 24.0 mph38.6 kmh 30.09 in1019.0 mb 0.00 in0.0 mm 0.00 in0.0 mm 0.01 in0.3 mm
09:50 PM 28.3°F-2.1°C 16.6°F-8.6°C 61% 10.0 mph NNE16.1 kmh NNE 21.0 mph33.8 kmh 30.08 in1018.6 mb 0.00 in0.0 mm 0.00 in0.0 mm 0.01 in0.3 mm
09:45 PM 28.4°F-2.0°C 16.3°F-8.7°C 60% 9.0 mph NNE14.5 kmh NNE 20.0 mph32.2 kmh 30.09 in1019.0 mb 0.00 in0.0 mm 0.00 in0.0 mm 0.01 in0.3 mm
09:40 PM 28.4°F-2.0°C 16.3°F-8.7°C 60% 8.0 mph 12.9 kmh 15.0 mph24.1 kmh 30.09 in1019.0 mb 0.00 in0.0 mm 0.00 in0.0 mm 0.01 in0.3 mm
09:35 PM 28.7°F-1.8°C 16.2°F-8.8°C 59% 9.0 mph NNE14.5 kmh NNE 15.0 mph24.1 kmh 30.09 in1019.0 mb 0.00 in0.0 mm 0.00 in0.0 mm 0.01 in0.3 mm
09:30 PM 28.9°F-1.7°C 16.0°F-8.9°C 58% 11.0 mph NNE17.7 kmh NNE 22.0 mph35.4 kmh 30.09 in1019.0 mb 0.00 in0.0 mm 0.00 in0.0 mm 0.01 in0.3 mm
09:25 PM 29.0°F-1.7°C 16.1°F-8.8°C 58% 14.0 mph NNE22.5 kmh NNE 20.0 mph32.2 kmh 30.09 in1019.0 mb 0.00 in0.0 mm 0.00 in0.0 mm 0.01 in0.3 mm
09:20 PM 28.8°F-1.8°C 16.3°F-8.7°C 59% 11.0 mph NE17.7 kmh NE 22.0 mph35.4 kmh 30.09 in1019.0 mb 0.00 in0.0 mm 0.00 in0.0 mm 0.01 in0.3 mm
09:15 PM 28.8°F-1.8°C 16.3°F-8.7°C 59% 10.0 mph NNE16.1 kmh NNE 19.0 mph30.6 kmh 30.09 in1019.0 mb 0.00 in0.0 mm 0.00 in0.0 mm 0.01 in0.3 mm
09:10 PM 28.8°F-1.8°C 16.3°F-8.7°C 59% 9.0 mph NNE14.5 kmh NNE 16.0 mph25.7 kmh 30.09 in1019.0 mb 0.00 in0.0 mm 0.00 in0.0 mm 0.01 in0.3 mm
09:05 PM 28.9°F-1.7°C 16.4°F-8.7°C 59% 10.0 mph 16.1 kmh 18.0 mph29.0 kmh 30.08 in1018.6 mb 0.00 in0.0 mm 0.00 in0.0 mm 0.01 in0.3 mm
09:00 PM 28.9°F-1.7°C 16.4°F-8.7°C 59% 10.0 mph 16.1 kmh 21.0 mph33.8 kmh 30.09 in1019.0 mb 0.00 in0.0 mm 0.00 in0.0 mm 0.01 in0.3 mm
08:55 PM 29.0°F-1.7°C 16.5°F-8.6°C 59% 9.0 mph NNE14.5 kmh NNE 18.0 mph29.0 kmh 30.09 in1019.0 mb 0.00 in0.0 mm 0.00 in0.0 mm 0.01 in0.3 mm
08:50 PM 28.9°F-1.7°C 16.0°F-8.9°C 58% 9.0 mph 14.5 kmh 18.0 mph29.0 kmh 30.09 in1019.0 mb 0.00 in0.0 mm 0.00 in0.0 mm 0.01 in0.3 mm
08:45 PM 28.9°F-1.7°C 16.0°F-8.9°C 58% 7.0 mph 11.3 kmh 12.0 mph19.3 kmh 30.09 in1019.0 mb 0.00 in0.0 mm 0.00 in0.0 mm 0.01 in0.3 mm
08:40 PM 29.0°F-1.7°C 16.1°F-8.8°C 58% 8.0 mph NNE12.9 kmh NNE 14.0 mph22.5 kmh 30.09 in1019.0 mb 0.00 in0.0 mm 0.00 in0.0 mm 0.01 in0.3 mm
08:35 PM 29.1°F-1.6°C 16.2°F-8.8°C 58% 8.0 mph NNE12.9 kmh NNE 16.0 mph25.7 kmh 30.08 in1018.6 mb 0.00 in0.0 mm 0.00 in0.0 mm 0.01 in0.3 mm
08:30 PM 29.0°F-1.7°C 16.1°F-8.8°C 58% 10.0 mph 16.1 kmh 17.0 mph27.4 kmh 30.08 in1018.6 mb 0.00 in0.0 mm 0.00 in0.0 mm 0.01 in0.3 mm
08:25 PM 28.8°F-1.8°C 15.9°F-8.9°C 58% 7.0 mph 11.3 kmh 16.0 mph25.7 kmh 30.08 in1018.6 mb 0.00 in0.0 mm 0.00 in0.0 mm 0.01 in0.3 mm
08:20 PM 28.9°F-1.7°C 16.0°F-8.9°C 58% 7.0 mph 11.3 kmh 14.0 mph22.5 kmh 30.07 in1018.3 mb 0.00 in0.0 mm 0.00 in0.0 mm 0.01 in0.3 mm
08:15 PM 29.0°F-1.7°C 16.1°F-8.8°C 58% 11.0 mph 17.7 kmh 19.0 mph30.6 kmh 30.08 in1018.6 mb 0.00 in0.0 mm 0.00 in0.0 mm 0.01 in0.3 mm
08:10 PM 28.8°F-1.8°C 16.3°F-8.7°C 59% 9.0 mph NNE14.5 kmh NNE 16.0 mph25.7 kmh 30.07 in1018.3 mb 0.00 in0.0 mm 0.00 in0.0 mm 0.01 in0.3 mm
08:05 PM 28.7°F-1.8°C 16.2°F-8.8°C 59% 7.0 mph NNE11.3 kmh NNE 14.0 mph22.5 kmh 30.07 in1018.3 mb 0.00 in0.0 mm 0.00 in0.0 mm 0.01 in0.3 mm
08:00 PM 28.7°F-1.8°C 16.2°F-8.8°C 59% 6.0 mph 9.7 kmh 16.0 mph25.7 kmh 30.08 in1018.6 mb 0.00 in0.0 mm 0.00 in0.0 mm 0.01 in0.3 mm
07:55 PM 28.7°F-1.8°C 16.2°F-8.8°C 59% 5.0 mph 8.0 kmh 11.0 mph17.7 kmh 30.07 in1018.3 mb 0.00 in0.0 mm 0.00 in0.0 mm 0.01 in0.3 mm
07:50 PM 28.9°F-1.7°C 16.0°F-8.9°C 58% 9.0 mph NNW14.5 kmh NNW 16.0 mph25.7 kmh 30.07 in1018.3 mb 0.00 in0.0 mm 0.00 in0.0 mm 0.01 in0.3 mm
07:45 PM 28.9°F-1.7°C 16.0°F-8.9°C 58% 8.0 mph NNW12.9 kmh NNW 16.0 mph25.7 kmh 30.07 in1018.3 mb 0.00 in0.0 mm 0.00 in0.0 mm 0.01 in0.3 mm
07:40 PM 29.0°F-1.7°C 16.5°F-8.6°C 59% 7.0 mph 11.3 kmh 13.0 mph20.9 kmh 30.07 in1018.3 mb 0.00 in0.0 mm 0.00 in0.0 mm 0.01 in0.3 mm
07:35 PM 29.0°F-1.7°C 16.1°F-8.8°C 58% 7.0 mph NNW11.3 kmh NNW 13.0 mph20.9 kmh 30.07 in1018.3 mb 0.00 in0.0 mm 0.00 in0.0 mm 0.01 in0.3 mm
07:30 PM 29.1°F-1.6°C 16.2°F-8.8°C 58% 5.0 mph NNE8.0 kmh NNE 11.0 mph17.7 kmh 30.07 in1018.3 mb 0.00 in0.0 mm 0.00 in0.0 mm 0.01 in0.3 mm
07:25 PM 29.3°F-1.5°C 16.4°F-8.7°C 58% 5.0 mph NE8.0 kmh NE 10.0 mph16.1 kmh 30.07 in1018.3 mb 0.00 in0.0 mm 0.00 in0.0 mm 0.01 in0.3 mm
07:20 PM 29.4°F-1.4°C 16.5°F-8.6°C 58% 7.0 mph NE11.3 kmh NE 14.0 mph22.5 kmh 30.07 in1018.3 mb 0.00 in0.0 mm 0.00 in0.0 mm 0.01 in0.3 mm
07:15 PM 29.6°F-1.3°C 16.7°F-8.5°C 58% 8.0 mph NNE12.9 kmh NNE 19.0 mph30.6 kmh 30.07 in1018.3 mb 0.00 in0.0 mm 0.00 in0.0 mm 0.01 in0.3 mm
07:10 PM 29.7°F-1.3°C 16.8°F-8.4°C 58% 8.0 mph NNE12.9 kmh NNE 17.0 mph27.4 kmh 30.06 in1017.9 mb 0.00 in0.0 mm 0.00 in0.0 mm 0.01 in0.3 mm
07:05 PM 29.9°F-1.2°C 16.5°F-8.6°C 57% 9.0 mph 14.5 kmh 17.0 mph27.4 kmh 30.06 in1017.9 mb 0.00 in0.0 mm 0.00 in0.0 mm 0.01 in0.3 mm
07:00 PM 30.4°F-0.9°C 16.6°F-8.6°C 56% 8.0 mph 12.9 kmh 20.0 mph32.2 kmh 30.05 in1017.6 mb 0.00 in0.0 mm 0.00 in0.0 mm 0.01 in0.3 mm
06:55 PM 31.1°F-0.5°C 16.4°F-8.7°C 54% 7.0 mph NE11.3 kmh NE 15.0 mph24.1 kmh 30.05 in1017.6 mb 0.00 in0.0 mm 0.00 in0.0 mm 0.01 in0.3 mm
06:50 PM 31.4°F-0.3°C 16.3°F-8.7°C 53% 10.0 mph NE16.1 kmh NE 19.0 mph30.6 kmh 30.05 in1017.6 mb 0.00 in0.0 mm 0.00 in0.0 mm 0.01 in0.3 mm
06:45 PM 31.6°F-0.2°C 16.5°F-8.6°C 53% 9.0 mph NE14.5 kmh NE 17.0 mph27.4 kmh 30.05 in1017.6 mb 0.00 in0.0 mm 0.00 in0.0 mm 0.01 in0.3 mm
06:40 PM 31.5°F-0.3°C 16.8°F-8.4°C 54% 7.0 mph NE11.3 kmh NE 14.0 mph22.5 kmh 30.04 in1017.3 mb 0.00 in0.0 mm 0.00 in0.0 mm 0.01 in0.3 mm
06:35 PM 31.5°F-0.3°C 16.4°F-8.7°C 53% 9.0 mph NE14.5 kmh NE 19.0 mph30.6 kmh 30.04 in1017.3 mb 0.00 in0.0 mm 0.00 in0.0 mm 0.01 in0.3 mm
06:30 PM 32.2°F0.1°C 17.0°F-8.3°C 53% 5.0 mph NNE8.0 kmh NNE 13.0 mph20.9 kmh 30.04 in1017.3 mb 0.00 in0.0 mm 0.00 in0.0 mm 0.01 in0.3 mm
06:25 PM 32.5°F0.3°C 17.3°F-8.2°C 53% 5.0 mph 8.0 kmh 17.0 mph27.4 kmh 30.05 in1017.6 mb 0.00 in0.0 mm 0.00 in0.0 mm 0.01 in0.3 mm
06:20 PM 32.1°F0.1°C 17.4°F-8.1°C 54% 10.0 mph NNE16.1 kmh NNE 20.0 mph32.2 kmh 30.03 in1016.9 mb 0.00 in0.0 mm 0.00 in0.0 mm 0.01 in0.3 mm
06:15 PM 31.5°F-0.3°C 16.8°F-8.4°C 54% 12.0 mph NNW19.3 kmh NNW 26.0 mph41.8 kmh 30.03 in1016.9 mb 0.00 in0.0 mm 0.00 in0.0 mm 0.01 in0.3 mm
06:10 PM 31.2°F-0.4°C 16.5°F-8.6°C 54% 16.0 mph NE25.7 kmh NE 35.0 mph56.3 kmh 30.03 in1016.9 mb 0.00 in0.0 mm 0.00 in0.0 mm 0.01 in0.3 mm
06:05 PM 31.3°F-0.4°C 16.6°F-8.6°C 54% 13.0 mph NNE20.9 kmh NNE 20.0 mph32.2 kmh 30.02 in1016.6 mb 0.00 in0.0 mm 0.00 in0.0 mm 0.01 in0.3 mm
06:00 PM 31.4°F-0.3°C 17.1°F-8.3°C 55% 10.0 mph NNE16.1 kmh NNE 17.0 mph27.4 kmh 30.02 in1016.6 mb 0.00 in0.0 mm 0.00 in0.0 mm 0.01 in0.3 mm
05:55 PM 31.6°F-0.2°C 16.9°F-8.4°C 54% 10.0 mph 16.1 kmh 20.0 mph32.2 kmh 30.02 in1016.6 mb 0.00 in0.0 mm 0.00 in0.0 mm 0.01 in0.3 mm
05:50 PM 32.1°F0.1°C 17.4°F-8.1°C 54% 8.0 mph NNE12.9 kmh NNE 16.0 mph25.7 kmh 30.02 in1016.6 mb 0.00 in0.0 mm 0.00 in0.0 mm 0.01 in0.3 mm
05:45 PM 32.3°F0.2°C 17.1°F-8.3°C 53% 8.0 mph NE12.9 kmh NE 15.0 mph24.1 kmh 30.02 in1016.6 mb 0.00 in0.0 mm 0.00 in0.0 mm 0.01 in0.3 mm
05:40 PM 32.2°F0.1°C 17.4°F-8.1°C 54% 7.0 mph NE11.3 kmh NE 13.0 mph20.9 kmh 30.02 in1016.6 mb 0.00 in0.0 mm 0.00 in0.0 mm 0.01 in0.3 mm
05:35 PM 31.9°F-0.1°C 17.2°F-8.2°C 54% 7.0 mph ENE11.3 kmh ENE 14.0 mph22.5 kmh 30.02 in1016.6 mb 0.00 in0.0 mm 0.00 in0.0 mm 0.01 in0.3 mm
05:30 PM 31.9°F-0.1°C 17.2°F-8.2°C 54% 8.0 mph NNE12.9 kmh NNE 16.0 mph25.7 kmh 30.02 in1016.6 mb 0.00 in0.0 mm 0.00 in0.0 mm 0.01 in0.3 mm
05:25 PM 32.3°F0.2°C 17.1°F-8.3°C 53% 9.0 mph 14.5 kmh 16.0 mph25.7 kmh 30.02 in1016.6 mb 0.00 in0.0 mm 0.00 in0.0 mm 0.01 in0.3 mm
05:20 PM 33.4°F0.8°C 17.2°F-8.2°C 51% 10.0 mph NNW16.1 kmh NNW 20.0 mph32.2 kmh 30.02 in1016.6 mb 0.00 in0.0 mm 0.00 in0.0 mm 0.01 in0.3 mm
05:15 PM 33.9°F1.1°C 18.2°F-7.7°C 52% 10.0 mph 16.1 kmh 22.0 mph35.4 kmh 30.01 in1016.3 mb 0.00 in0.0 mm 0.00 in0.0 mm 0.01 in0.3 mm
05:10 PM 34.1°F1.2°C 17.9°F-7.8°C 51% 13.0 mph NE20.9 kmh NE 22.0 mph35.4 kmh 30.01 in1016.3 mb 0.00 in0.0 mm 0.00 in0.0 mm 0.01 in0.3 mm
05:05 PM 34.4°F1.3°C 18.2°F-7.7°C 51% 12.0 mph NW19.3 kmh NW 23.0 mph37.0 kmh 30.01 in1016.3 mb 0.00 in0.0 mm 0.00 in0.0 mm 0.01 in0.3 mm
05:00 PM 34.2°F1.2°C 17.5°F-8.1°C 50% 8.0 mph 12.9 kmh 16.0 mph25.7 kmh 30.00 in1015.9 mb 0.00 in0.0 mm 0.00 in0.0 mm 0.01 in0.3 mm
04:55 PM 33.8°F1.0°C 17.2°F-8.2°C 50% 11.0 mph 17.7 kmh 21.0 mph33.8 kmh 30.00 in1015.9 mb 0.00 in0.0 mm 0.00 in0.0 mm 0.01 in0.3 mm
04:50 PM 33.9°F1.1°C 17.2°F-8.2°C 50% 11.0 mph NNE17.7 kmh NNE 22.0 mph35.4 kmh 30.00 in1015.9 mb 0.00 in0.0 mm 0.00 in0.0 mm 0.01 in0.3 mm
04:45 PM 34.3°F1.3°C 17.1°F-8.3°C 49% 11.0 mph 17.7 kmh 19.0 mph30.6 kmh 30.00 in1015.9 mb 0.00 in0.0 mm 0.00 in0.0 mm 0.01 in0.3 mm
04:40 PM 34.3°F1.3°C 17.1°F-8.3°C 49% 10.0 mph NE16.1 kmh NE 17.0 mph27.4 kmh 30.00 in1015.9 mb 0.00 in0.0 mm 0.00 in0.0 mm 0.01 in0.3 mm
04:35 PM 33.9°F1.1°C 17.2°F-8.2°C 50% 12.0 mph NE19.3 kmh NE 28.0 mph45.1 kmh 30.00 in1015.9 mb 0.00 in0.0 mm 0.00 in0.0 mm 0.01 in0.3 mm
04:30 PM 34.6°F1.4°C 16.9°F-8.4°C 48% 11.0 mph 17.7 kmh 23.0 mph37.0 kmh 29.99 in1015.6 mb 0.00 in0.0 mm 0.00 in0.0 mm 0.01 in0.3 mm
04:25 PM 34.5°F1.4°C 17.3°F-8.2°C 49% 12.0 mph NNE19.3 kmh NNE 21.0 mph33.8 kmh 29.99 in1015.6 mb 0.00 in0.0 mm 0.00 in0.0 mm 0.01 in0.3 mm
04:20 PM 34.4°F1.3°C 17.2°F-8.2°C 49% 12.0 mph NE19.3 kmh NE 29.0 mph46.7 kmh 29.98 in1015.2 mb 0.00 in0.0 mm 0.00 in0.0 mm 0.01 in0.3 mm
04:15 PM 34.4°F1.3°C 17.2°F-8.2°C 49% 11.0 mph 17.7 kmh 23.0 mph37.0 kmh 29.99 in1015.6 mb 0.00 in0.0 mm 0.00 in0.0 mm 0.01 in0.3 mm
04:10 PM 34.7°F1.5°C 17.5°F-8.1°C 49% 12.0 mph NE19.3 kmh NE 23.0 mph37.0 kmh 29.98 in1015.2 mb 0.00 in0.0 mm 0.00 in0.0 mm 0.01 in0.3 mm
04:05 PM 34.4°F1.3°C 17.2°F-8.2°C 49% 11.0 mph NE17.7 kmh NE 24.0 mph38.6 kmh 29.99 in1015.6 mb 0.00 in0.0 mm 0.00 in0.0 mm 0.01 in0.3 mm
04:00 PM 33.9°F1.1°C 17.2°F-8.2°C 50% 10.0 mph 16.1 kmh 21.0 mph33.8 kmh 29.98 in1015.2 mb 0.00 in0.0 mm 0.00 in0.0 mm 0.01 in0.3 mm
03:55 PM 33.5°F0.8°C 15.9°F-8.9°C 48% 15.0 mph NE24.1 kmh NE 30.0 mph48.3 kmh 29.98 in1015.2 mb 0.00 in0.0 mm 0.00 in0.0 mm 0.01 in0.3 mm
03:50 PM 33.6°F0.9°C 17.0°F-8.3°C 50% 10.0 mph NE16.1 kmh NE 27.0 mph43.5 kmh 29.98 in1015.2 mb 0.00 in0.0 mm 0.00 in0.0 mm 0.01 in0.3 mm
03:45 PM 33.8°F1.0°C 16.7°F-8.5°C 49% 11.0 mph NE17.7 kmh NE 19.0 mph30.6 kmh 29.98 in1015.2 mb 0.00 in0.0 mm 0.00 in0.0 mm 0.01 in0.3 mm
03:40 PM 34.0°F1.1°C 16.9°F-8.4°C 49% 9.0 mph 14.5 kmh 20.0 mph32.2 kmh 29.98 in1015.2 mb 0.00 in0.0 mm 0.00 in0.0 mm 0.01 in0.3 mm
03:35 PM 33.2°F0.7°C 16.6°F-8.6°C 50% 14.0 mph NE22.5 kmh NE 28.0 mph45.1 kmh 29.98 in1015.2 mb 0.00 in0.0 mm 0.00 in0.0 mm 0.01 in0.3 mm
03:30 PM 33.3°F0.7°C 16.7°F-8.5°C 50% 14.0 mph NNE22.5 kmh NNE 32.0 mph51.5 kmh 29.97 in1014.9 mb 0.00 in0.0 mm 0.00 in0.0 mm 0.01 in0.3 mm
03:25 PM 33.8°F1.0°C 17.2°F-8.2°C 50% 12.0 mph 19.3 kmh 26.0 mph41.8 kmh 29.97 in1014.9 mb 0.00 in0.0 mm 0.00 in0.0 mm 0.01 in0.3 mm
03:20 PM 33.5°F0.8°C 17.3°F-8.2°C 51% 12.0 mph NNW19.3 kmh NNW 24.0 mph38.6 kmh 29.97 in1014.9 mb 0.00 in0.0 mm 0.00 in0.0 mm 0.01 in0.3 mm
03:15 PM 33.2°F0.7°C 17.5°F-8.1°C 52% 11.0 mph 17.7 kmh 20.0 mph32.2 kmh 29.97 in1014.9 mb 0.00 in0.0 mm 0.00 in0.0 mm 0.01 in0.3 mm
03:10 PM 32.2°F0.1°C 17.4°F-8.1°C 54% 16.0 mph NE25.7 kmh NE 30.0 mph48.3 kmh 29.96 in1014.6 mb 0.00 in0.0 mm 0.00 in0.0 mm 0.01 in0.3 mm
03:05 PM 31.9°F-0.1°C 17.2°F-8.2°C 54% 14.0 mph NNE22.5 kmh NNE 27.0 mph43.5 kmh 29.96 in1014.6 mb 0.00 in0.0 mm 0.00 in0.0 mm 0.01 in0.3 mm
03:00 PM 32.0°F0.0°C 17.3°F-8.2°C 54% 13.0 mph 20.9 kmh 32.0 mph51.5 kmh 29.97 in1014.9 mb 0.00 in0.0 mm 0.00 in0.0 mm 0.01 in0.3 mm
02:55 PM 31.8°F-0.1°C 16.2°F-8.8°C 52% 15.0 mph NNE24.1 kmh NNE 32.0 mph51.5 kmh 29.97 in1014.9 mb 0.00 in0.0 mm 0.00 in0.0 mm 0.01 in0.3 mm
02:50 PM 31.9°F-0.1°C 17.2°F-8.2°C 54% 16.0 mph NE25.7 kmh NE 29.0 mph46.7 kmh 29.96 in1014.6 mb 0.00 in0.0 mm 0.00 in0.0 mm 0.01 in0.3 mm
02:45 PM 32.0°F0.0°C 17.3°F-8.2°C 54% 11.0 mph NE17.7 kmh NE 24.0 mph38.6 kmh 29.95 in1014.2 mb 0.00 in0.0 mm 0.00 in0.0 mm 0.01 in0.3 mm
02:40 PM 32.1°F0.1°C 17.4°F-8.1°C 54% 15.0 mph NE24.1 kmh NE 28.0 mph45.1 kmh 29.95 in1014.2 mb 0.00 in0.0 mm 0.00 in0.0 mm 0.01 in0.3 mm
02:35 PM 32.0°F0.0°C 17.7°F-7.9°C 55% 14.0 mph ENE22.5 kmh ENE 31.0 mph49.9 kmh 29.95 in1014.2 mb 0.00 in0.0 mm 0.00 in0.0 mm 0.01 in0.3 mm
02:30 PM 31.7°F-0.2°C 17.4°F-8.1°C 55% 13.0 mph NNE20.9 kmh NNE 28.0 mph45.1 kmh 29.95 in1014.2 mb 0.00 in0.0 mm 0.00 in0.0 mm 0.01 in0.3 mm
02:25 PM 31.4°F-0.3°C 18.4°F-7.6°C 58% 13.0 mph 20.9 kmh 28.0 mph45.1 kmh 29.95 in1014.2 mb 0.00 in0.0 mm 0.00 in0.0 mm 0.01 in0.3 mm
02:20 PM 31.3°F-0.4°C 18.3°F-7.6°C 58% 14.0 mph NE22.5 kmh NE 29.0 mph46.7 kmh 29.94 in1013.9 mb 0.00 in0.0 mm 0.00 in0.0 mm 0.01 in0.3 mm
02:15 PM 31.7°F-0.2°C 17.0°F-8.3°C 54% 14.0 mph NE22.5 kmh NE 26.0 mph41.8 kmh 29.95 in1014.2 mb 0.00 in0.0 mm 0.00 in0.0 mm 0.01 in0.3 mm
02:10 PM 31.5°F-0.3°C 17.2°F-8.2°C 55% 16.0 mph NE25.7 kmh NE 32.0 mph51.5 kmh 29.95 in1014.2 mb 0.00 in0.0 mm 0.00 in0.0 mm 0.01 in0.3 mm
02:05 PM 31.4°F-0.3°C 16.7°F-8.5°C 54% 15.0 mph NNE24.1 kmh NNE 31.0 mph49.9 kmh 29.95 in1014.2 mb 0.00 in0.0 mm 0.00 in0.0 mm 0.01 in0.3 mm
02:00 PM 31.2°F-0.4°C 17.4°F-8.1°C 56% 17.0 mph NE27.4 kmh NE 30.0 mph48.3 kmh 29.94 in1013.9 mb 0.00 in0.0 mm 0.00 in0.0 mm 0.01 in0.3 mm
01:55 PM 31.1°F-0.5°C 17.3°F-8.2°C 56% 22.0 mph NE35.4 kmh NE 38.0 mph61.2 kmh 29.94 in1013.9 mb 0.00 in0.0 mm 0.00 in0.0 mm 0.01 in0.3 mm
01:50 PM 31.5°F-0.3°C 17.6°F-8.0°C 56% 19.0 mph NE30.6 kmh NE 36.0 mph57.9 kmh 29.94 in1013.9 mb 0.00 in0.0 mm 0.00 in0.0 mm 0.01 in0.3 mm
01:45 PM 31.7°F-0.2°C 17.8°F-7.9°C 56% 16.0 mph NE25.7 kmh NE 39.0 mph62.8 kmh 29.94 in1013.9 mb 0.00 in0.0 mm 0.00 in0.0 mm 0.01 in0.3 mm
01:40 PM 31.4°F-0.3°C 19.1°F-7.2°C 60% 17.0 mph NNE27.4 kmh NNE 40.0 mph64.4 kmh 29.94 in1013.9 mb 0.00 in0.0 mm 0.00 in0.0 mm 0.01 in0.3 mm
01:35 PM 31.3°F-0.4°C 18.7°F-7.4°C 59% 19.0 mph NE30.6 kmh NE 38.0 mph61.2 kmh 29.94 in1013.9 mb 0.00 in0.0 mm 0.00 in0.0 mm 0.01 in0.3 mm
01:30 PM 31.4°F-0.3°C 18.4°F-7.6°C 58% 14.0 mph 22.5 kmh 30.0 mph48.3 kmh 29.94 in1013.9 mb 0.00 in0.0 mm 0.00 in0.0 mm 0.01 in0.3 mm
01:25 PM 31.7°F-0.2°C 19.0°F-7.2°C 59% 13.0 mph NE20.9 kmh NE 25.0 mph40.2 kmh 29.94 in1013.9 mb 0.00 in0.0 mm 0.00 in0.0 mm 0.01 in0.3 mm
01:20 PM 31.2°F-0.4°C 18.2°F-7.7°C 58% 15.0 mph NE24.1 kmh NE 28.0 mph45.1 kmh 29.94 in1013.9 mb 0.00 in0.0 mm 0.00 in0.0 mm 0.01 in0.3 mm
01:15 PM 31.2°F-0.4°C 19.0°F-7.2°C 60% 14.0 mph NE22.5 kmh NE 28.0 mph45.1 kmh 29.94 in1013.9 mb 0.00 in0.0 mm 0.00 in0.0 mm 0.01 in0.3 mm
01:10 PM 30.4°F-0.9°C 18.2°F-7.7°C 60% 16.0 mph 25.7 kmh 33.0 mph53.1 kmh 29.94 in1013.9 mb 0.00 in0.0 mm 0.00 in0.0 mm 0.01 in0.3 mm
01:05 PM 30.2°F-1.0°C 18.4°F-7.6°C 61% 14.0 mph 22.5 kmh 30.0 mph48.3 kmh 29.94 in1013.9 mb 0.00 in0.0 mm 0.00 in0.0 mm 0.01 in0.3 mm
01:00 PM 30.0°F-1.1°C 18.2°F-7.7°C 61% 17.0 mph NNE27.4 kmh NNE 34.0 mph54.7 kmh 29.94 in1013.9 mb 0.00 in0.0 mm 0.00 in0.0 mm 0.01 in0.3 mm
12:55 PM 29.9°F-1.2°C 18.1°F-7.7°C 61% 17.0 mph NNE27.4 kmh NNE 30.0 mph48.3 kmh 29.95 in1014.2 mb 0.00 in0.0 mm 0.00 in0.0 mm 0.01 in0.3 mm
12:50 PM 30.0°F-1.1°C 18.2°F-7.7°C 61% 14.0 mph 22.5 kmh 29.0 mph46.7 kmh 29.95 in1014.2 mb 0.00 in0.0 mm 0.00 in0.0 mm 0.01 in0.3 mm
12:45 PM 30.1°F-1.1°C 18.3°F-7.6°C 61% 14.0 mph 22.5 kmh 24.0 mph38.6 kmh 29.95 in1014.2 mb 0.00 in0.0 mm 0.00 in0.0 mm 0.01 in0.3 mm
12:40 PM 30.6°F-0.8°C 18.8°F-7.3°C 61% 14.0 mph NNE22.5 kmh NNE 27.0 mph43.5 kmh 29.95 in1014.2 mb 0.00 in0.0 mm 0.00 in0.0 mm 0.01 in0.3 mm
12:35 PM 30.5°F-0.8°C 19.1°F-7.2°C 62% 12.0 mph NNE19.3 kmh NNE 24.0 mph38.6 kmh 29.95 in1014.2 mb 0.00 in0.0 mm 0.00 in0.0 mm 0.01 in0.3 mm
12:30 PM 29.9°F-1.2°C 18.5°F-7.5°C 62% 15.0 mph 24.1 kmh 36.0 mph57.9 kmh 29.94 in1013.9 mb 0.00 in0.0 mm 0.00 in0.0 mm 0.01 in0.3 mm
12:25 PM 29.4°F-1.4°C 18.4°F-7.6°C 63% 14.0 mph 22.5 kmh 29.0 mph46.7 kmh 29.95 in1014.2 mb 0.00 in0.0 mm 0.00 in0.0 mm 0.01 in0.3 mm
12:20 PM 29.4°F-1.4°C 18.8°F-7.3°C 64% 14.0 mph 22.5 kmh 26.0 mph41.8 kmh 29.95 in1014.2 mb 0.00 in0.0 mm 0.00 in0.0 mm 0.01 in0.3 mm
12:15 PM 28.9°F-1.7°C 18.6°F-7.4°C 65% 14.0 mph NNE22.5 kmh NNE 22.0 mph35.4 kmh 29.94 in1013.9 mb 0.00 in0.0 mm 0.00 in0.0 mm 0.01 in0.3 mm
12:10 PM 29.2°F-1.6°C 18.6°F-7.4°C 64% 17.0 mph 27.4 kmh 28.0 mph45.1 kmh 29.95 in1014.2 mb 0.00 in0.0 mm 0.00 in0.0 mm 0.01 in0.3 mm
12:05 PM 29.5°F-1.4°C 18.1°F-7.7°C 62% 14.0 mph NNE22.5 kmh NNE 29.0 mph46.7 kmh 29.94 in1013.9 mb 0.00 in0.0 mm 0.00 in0.0 mm 0.01 in0.3 mm
12:00 PM 29.7°F-1.3°C 18.3°F-7.6°C 62% 16.0 mph 25.7 kmh 30.0 mph48.3 kmh 29.95 in1014.2 mb 0.00 in0.0 mm 0.00 in0.0 mm 0.01 in0.3 mm
11:55 AM 29.7°F-1.3°C 18.7°F-7.4°C 63% 13.0 mph NNE20.9 kmh NNE 35.0 mph56.3 kmh 29.95 in1014.2 mb 0.00 in0.0 mm 0.00 in0.0 mm 0.01 in0.3 mm
11:50 AM 29.5°F-1.4°C 18.5°F-7.5°C 63% 18.0 mph NNE29.0 kmh NNE 32.0 mph51.5 kmh 29.95 in1014.2 mb 0.00 in0.0 mm 0.00 in0.0 mm 0.01 in0.3 mm
11:45 AM 29.6°F-1.3°C 18.2°F-7.7°C 62% 16.0 mph NNE25.7 kmh NNE 33.0 mph53.1 kmh 29.95 in1014.2 mb 0.00 in0.0 mm 0.00 in0.0 mm 0.01 in0.3 mm
11:40 AM 29.6°F-1.3°C 18.6°F-7.4°C 63% 14.0 mph NNE22.5 kmh NNE 25.0 mph40.2 kmh 29.94 in1013.9 mb 0.00 in0.0 mm 0.00 in0.0 mm 0.01 in0.3 mm
11:35 AM 29.1°F-1.6°C 18.5°F-7.5°C 64% 13.0 mph 20.9 kmh 29.0 mph46.7 kmh 29.95 in1014.2 mb 0.00 in0.0 mm 0.00 in0.0 mm 0.01 in0.3 mm
11:30 AM 28.4°F-2.0°C 18.2°F-7.7°C 65% 14.0 mph NNE22.5 kmh NNE 26.0 mph41.8 kmh 29.95 in1014.2 mb 0.00 in0.0 mm 0.00 in0.0 mm 0.01 in0.3 mm
11:25 AM 28.3°F-2.1°C 18.1°F-7.7°C 65% 14.0 mph 22.5 kmh 23.0 mph37.0 kmh 29.95 in1014.2 mb 0.00 in0.0 mm 0.00 in0.0 mm 0.01 in0.3 mm
11:20 AM 28.1°F-2.2°C 18.2°F-7.7°C 66% 14.0 mph NE22.5 kmh NE 25.0 mph40.2 kmh 29.94 in1013.9 mb 0.00 in0.0 mm 0.00 in0.0 mm 0.01 in0.3 mm
11:15 AM 28.0°F-2.2°C 18.1°F-7.7°C 66% 14.0 mph NNE22.5 kmh NNE 27.0 mph43.5 kmh 29.95 in1014.2 mb 0.00 in0.0 mm 0.00 in0.0 mm 0.01 in0.3 mm
11:10 AM 27.9°F-2.3°C 17.7°F-7.9°C 65% 17.0 mph NNE27.4 kmh NNE 35.0 mph56.3 kmh 29.94 in1013.9 mb 0.00 in0.0 mm 0.00 in0.0 mm 0.01 in0.3 mm
11:05 AM 27.9°F-2.3°C 17.7°F-7.9°C 65% 14.0 mph 22.5 kmh 29.0 mph46.7 kmh 29.94 in1013.9 mb 0.00 in0.0 mm 0.00 in0.0 mm 0.01 in0.3 mm
11:00 AM 27.9°F-2.3°C 17.3°F-8.2°C 64% 13.0 mph 20.9 kmh 29.0 mph46.7 kmh 29.94 in1013.9 mb 0.00 in0.0 mm 0.00 in0.0 mm 0.01 in0.3 mm
10:55 AM 27.8°F-2.3°C 16.9°F-8.4°C 63% 15.0 mph NNE24.1 kmh NNE 29.0 mph46.7 kmh 29.94 in1013.9 mb 0.00 in0.0 mm 0.00 in0.0 mm 0.01 in0.3 mm
10:50 AM 27.7°F-2.4°C 17.1°F-8.3°C 64% 16.0 mph NNE25.7 kmh NNE 29.0 mph46.7 kmh 29.94 in1013.9 mb 0.00 in0.0 mm 0.00 in0.0 mm 0.01 in0.3 mm
10:45 AM 27.6°F-2.4°C 17.4°F-8.1°C 65% 16.0 mph 25.7 kmh 31.0 mph49.9 kmh 29.93 in1013.5 mb 0.00 in0.0 mm 0.00 in0.0 mm 0.01 in0.3 mm
10:40 AM 27.5°F-2.5°C 17.3°F-8.2°C 65% 11.0 mph 17.7 kmh 22.0 mph35.4 kmh 29.93 in1013.5 mb 0.00 in0.0 mm 0.00 in0.0 mm 0.01 in0.3 mm
10:35 AM 27.4°F-2.6°C 17.2°F-8.2°C 65% 15.0 mph NE24.1 kmh NE 31.0 mph49.9 kmh 29.93 in1013.5 mb 0.00 in0.0 mm 0.00 in0.0 mm 0.01 in0.3 mm
10:30 AM 27.3°F-2.6°C 17.5°F-8.1°C 66% 13.0 mph 20.9 kmh 28.0 mph45.1 kmh 29.93 in1013.5 mb 0.00 in0.0 mm 0.00 in0.0 mm 0.01 in0.3 mm
10:25 AM 27.1°F-2.7°C 17.3°F-8.2°C 66% 15.0 mph NNE24.1 kmh NNE 26.0 mph41.8 kmh 29.93 in1013.5 mb 0.00 in0.0 mm 0.00 in0.0 mm 0.01 in0.3 mm
10:20 AM 27.1°F-2.7°C 17.3°F-8.2°C 66% 14.0 mph 22.5 kmh 27.0 mph43.5 kmh 29.93 in1013.5 mb 0.00 in0.0 mm 0.00 in0.0 mm 0.01 in0.3 mm
10:15 AM 27.1°F-2.7°C 17.3°F-8.2°C 66% 13.0 mph 20.9 kmh 23.0 mph37.0 kmh 29.93 in1013.5 mb 0.00 in0.0 mm 0.00 in0.0 mm 0.01 in0.3 mm
10:10 AM 27.1°F-2.7°C 16.9°F-8.4°C 65% 15.0 mph NNE24.1 kmh NNE 28.0 mph45.1 kmh 29.93 in1013.5 mb 0.00 in0.0 mm 0.00 in0.0 mm 0.01 in0.3 mm
10:05 AM 27.1°F-2.7°C 16.2°F-8.8°C 63% 16.0 mph 25.7 kmh 26.0 mph41.8 kmh 29.93 in1013.5 mb 0.00 in0.0 mm 0.00 in0.0 mm 0.01 in0.3 mm
10:00 AM 27.2°F-2.7°C 15.9°F-8.9°C 62% 15.0 mph NE24.1 kmh NE 31.0 mph49.9 kmh 29.92 in1013.2 mb 0.00 in0.0 mm 0.00 in0.0 mm 0.01 in0.3 mm
09:55 AM 27.1°F-2.7°C 15.8°F-9.0°C 62% 17.0 mph NNE27.4 kmh NNE 35.0 mph56.3 kmh 29.92 in1013.2 mb 0.00 in0.0 mm 0.00 in0.0 mm 0.01 in0.3 mm
09:50 AM 27.1°F-2.7°C 15.5°F-9.2°C 61% 14.0 mph NNE22.5 kmh NNE 35.0 mph56.3 kmh 29.92 in1013.2 mb 0.00 in0.0 mm 0.00 in0.0 mm 0.01 in0.3 mm
09:45 AM 26.8°F-2.9°C 15.6°F-9.1°C 62% 16.0 mph NE25.7 kmh NE 32.0 mph51.5 kmh 29.92 in1013.2 mb 0.00 in0.0 mm 0.00 in0.0 mm 0.01 in0.3 mm
09:40 AM 26.5°F-3.1°C 15.3°F-9.3°C 62% 14.0 mph 22.5 kmh 27.0 mph43.5 kmh 29.92 in1013.2 mb 0.00 in0.0 mm 0.00 in0.0 mm 0.01 in0.3 mm
09:35 AM 26.5°F-3.1°C 15.3°F-9.3°C 62% 15.0 mph 24.1 kmh 31.0 mph49.9 kmh 29.91 in1012.9 mb 0.00 in0.0 mm 0.00 in0.0 mm 0.01 in0.3 mm
09:30 AM 26.5°F-3.1°C 15.3°F-9.3°C 62% 18.0 mph NE29.0 kmh NE 36.0 mph57.9 kmh 29.92 in1013.2 mb 0.00 in0.0 mm 0.00 in0.0 mm 0.01 in0.3 mm
09:25 AM 26.5°F-3.1°C 14.5°F-9.7°C 60% 17.0 mph NNE27.4 kmh NNE 36.0 mph57.9 kmh 29.92 in1013.2 mb 0.00 in0.0 mm 0.00 in0.0 mm 0.01 in0.3 mm
09:20 AM 26.2°F-3.2°C 14.6°F-9.7°C 61% 15.0 mph NNE24.1 kmh NNE 31.0 mph49.9 kmh 29.91 in1012.9 mb 0.00 in0.0 mm 0.00 in0.0 mm 0.01 in0.3 mm
09:15 AM 26.2°F-3.2°C 15.0°F-9.4°C 62% 13.0 mph NE20.9 kmh NE 32.0 mph51.5 kmh 29.91 in1012.9 mb 0.00 in0.0 mm 0.00 in0.0 mm 0.01 in0.3 mm
09:10 AM 26.2°F-3.2°C 15.0°F-9.4°C 62% 15.0 mph NE24.1 kmh NE 30.0 mph48.3 kmh 29.91 in1012.9 mb 0.00 in0.0 mm 0.00 in0.0 mm 0.01 in0.3 mm
09:05 AM 26.3°F-3.2°C 15.1°F-9.4°C 62% 19.0 mph NE30.6 kmh NE 41.0 mph66.0 kmh 29.91 in1012.9 mb 0.00 in0.0 mm 0.00 in0.0 mm 0.01 in0.3 mm
09:00 AM 26.1°F-3.3°C 14.9°F-9.5°C 62% 16.0 mph NNE25.7 kmh NNE 43.0 mph69.2 kmh 29.90 in1012.5 mb 0.00 in0.0 mm 0.00 in0.0 mm 0.01 in0.3 mm
08:55 AM 26.1°F-3.3°C 14.5°F-9.7°C 61% 17.0 mph NE27.4 kmh NE 33.0 mph53.1 kmh 29.90 in1012.5 mb 0.00 in0.0 mm 0.00 in0.0 mm 0.01 in0.3 mm
08:50 AM 26.0°F-3.3°C 14.8°F-9.6°C 62% 17.0 mph NE27.4 kmh NE 42.0 mph67.6 kmh 29.91 in1012.9 mb 0.00 in0.0 mm 0.00 in0.0 mm 0.01 in0.3 mm
08:45 AM 25.7°F-3.5°C 15.2°F-9.3°C 64% 13.0 mph NNE20.9 kmh NNE 25.0 mph40.2 kmh 29.91 in1012.9 mb 0.00 in0.0 mm 0.00 in0.0 mm 0.01 in0.3 mm
08:40 AM 25.7°F-3.5°C 15.2°F-9.3°C 64% 14.0 mph NE22.5 kmh NE 36.0 mph57.9 kmh 29.91 in1012.9 mb 0.00 in0.0 mm 0.00 in0.0 mm 0.01 in0.3 mm
08:35 AM 25.8°F-3.4°C 15.3°F-9.3°C 64% 13.0 mph NNE20.9 kmh NNE 26.0 mph41.8 kmh 29.91 in1012.9 mb 0.00 in0.0 mm 0.00 in0.0 mm 0.01 in0.3 mm
08:30 AM 25.8°F-3.4°C 15.7°F-9.1°C 65% 13.0 mph NE20.9 kmh NE 26.0 mph41.8 kmh 29.90 in1012.5 mb 0.00 in0.0 mm 0.00 in0.0 mm 0.01 in0.3 mm
08:25 AM 25.8°F-3.4°C 15.7°F-9.1°C 65% 16.0 mph NE25.7 kmh NE 25.0 mph40.2 kmh 29.91 in1012.9 mb 0.00 in0.0 mm 0.00 in0.0 mm 0.01 in0.3 mm
08:20 AM 25.8°F-3.4°C 15.3°F-9.3°C 64% 15.0 mph NNE24.1 kmh NNE 33.0 mph53.1 kmh 29.90 in1012.5 mb 0.00 in0.0 mm 0.00 in0.0 mm 0.01 in0.3 mm
08:15 AM 25.8°F-3.4°C 15.3°F-9.3°C 64% 17.0 mph NE27.4 kmh NE 39.0 mph62.8 kmh 29.90 in1012.5 mb 0.00 in0.0 mm 0.00 in0.0 mm 0.01 in0.3 mm
08:10 AM 25.6°F-3.6°C 15.8°F-9.0°C 66% 16.0 mph NE25.7 kmh NE 33.0 mph53.1 kmh 29.90 in1012.5 mb 0.00 in0.0 mm 0.00 in0.0 mm 0.01 in0.3 mm
08:05 AM 25.6°F-3.6°C 16.2°F-8.8°C 67% 13.0 mph NNE20.9 kmh NNE 28.0 mph45.1 kmh 29.90 in1012.5 mb 0.00 in0.0 mm 0.00 in0.0 mm 0.01 in0.3 mm
08:00 AM 25.7°F-3.5°C 15.9°F-8.9°C 66% 19.0 mph NE30.6 kmh NE 32.0 mph51.5 kmh 29.91 in1012.9 mb 0.00 in0.0 mm 0.00 in0.0 mm 0.01 in0.3 mm
07:55 AM 25.8°F-3.4°C 15.3°F-9.3°C 64% 17.0 mph NE27.4 kmh NE 34.0 mph54.7 kmh 29.91 in1012.9 mb 0.00 in0.0 mm 0.00 in0.0 mm 0.01 in0.3 mm
07:50 AM 25.8°F-3.4°C 14.6°F-9.7°C 62% 15.0 mph NNE24.1 kmh NNE 31.0 mph49.9 kmh 29.89 in1012.2 mb 0.00 in0.0 mm 0.00 in0.0 mm 0.01 in0.3 mm
07:45 AM 25.7°F-3.5°C 14.5°F-9.7°C 62% 13.0 mph NNE20.9 kmh NNE 23.0 mph37.0 kmh 29.89 in1012.2 mb 0.00 in0.0 mm 0.00 in0.0 mm 0.01 in0.3 mm
07:40 AM 25.7°F-3.5°C 14.5°F-9.7°C 62% 17.0 mph NNE27.4 kmh NNE 41.0 mph66.0 kmh 29.89 in1012.2 mb 0.00 in0.0 mm 0.00 in0.0 mm 0.01 in0.3 mm
07:35 AM 25.4°F-3.7°C 14.9°F-9.5°C 64% 15.0 mph NNE24.1 kmh NNE 24.0 mph38.6 kmh 29.88 in1011.9 mb 0.00 in0.0 mm 0.00 in0.0 mm 0.01 in0.3 mm
07:30 AM 25.4°F-3.7°C 15.3°F-9.3°C 65% 15.0 mph NE24.1 kmh NE 32.0 mph51.5 kmh 29.89 in1012.2 mb 0.00 in0.0 mm 0.00 in0.0 mm 0.01 in0.3 mm
07:25 AM 25.4°F-3.7°C 15.3°F-9.3°C 65% 16.0 mph NE25.7 kmh NE 29.0 mph46.7 kmh 29.89 in1012.2 mb 0.00 in0.0 mm 0.00 in0.0 mm 0.01 in0.3 mm
07:20 AM 25.3°F-3.7°C 15.9°F-8.9°C 67% 17.0 mph NNE27.4 kmh NNE 29.0 mph46.7 kmh 29.89 in1012.2 mb 0.00 in0.0 mm 0.00 in0.0 mm 0.01 in0.3 mm
07:15 AM 25.2°F-3.8°C 16.1°F-8.8°C 68% 15.0 mph NNE24.1 kmh NNE 34.0 mph54.7 kmh 29.88 in1011.9 mb 0.00 in0.0 mm 0.00 in0.0 mm 0.01 in0.3 mm
07:10 AM 25.3°F-3.7°C 16.2°F-8.8°C 68% 13.0 mph 20.9 kmh 28.0 mph45.1 kmh 29.88 in1011.9 mb 0.00 in0.0 mm 0.00 in0.0 mm 0.01 in0.3 mm
07:05 AM 25.4°F-3.7°C 16.0°F-8.9°C 67% 17.0 mph NNE27.4 kmh NNE 39.0 mph62.8 kmh 29.87 in1011.5 mb 0.00 in0.0 mm 0.00 in0.0 mm 0.01 in0.3 mm
07:00 AM 25.5°F-3.6°C 15.7°F-9.1°C 66% 18.0 mph NNE29.0 kmh NNE 36.0 mph57.9 kmh 29.87 in1011.5 mb 0.00 in0.0 mm 0.00 in0.0 mm 0.01 in0.3 mm
06:55 AM 25.4°F-3.7°C 15.7°F-9.1°C 66% 17.0 mph 27.4 kmh 28.0 mph45.1 kmh 29.87 in1011.5 mb 0.00 in0.0 mm 0.00 in0.0 mm 0.01 in0.3 mm
06:50 AM 25.3°F-3.7°C 15.9°F-8.9°C 67% 16.0 mph NE25.7 kmh NE 38.0 mph61.2 kmh 29.87 in1011.5 mb 0.00 in0.0 mm 0.00 in0.0 mm 0.01 in0.3 mm
06:45 AM 25.4°F-3.7°C 16.3°F-8.7°C 68% 15.0 mph NNE24.1 kmh NNE 34.0 mph54.7 kmh 29.86 in1011.2 mb 0.00 in0.0 mm 0.00 in0.0 mm 0.01 in0.3 mm
06:40 AM 25.4°F-3.7°C 16.3°F-8.7°C 68% 15.0 mph NNE24.1 kmh NNE 27.0 mph43.5 kmh 29.87 in1011.5 mb 0.00 in0.0 mm 0.00 in0.0 mm 0.01 in0.3 mm
06:35 AM 25.3°F-3.7°C 16.6°F-8.6°C 69% 14.0 mph 22.5 kmh 26.0 mph41.8 kmh 29.87 in1011.5 mb 0.00 in0.0 mm 0.00 in0.0 mm 0.01 in0.3 mm
06:30 AM 25.4°F-3.7°C 16.7°F-8.5°C 69% 14.0 mph 22.5 kmh 28.0 mph45.1 kmh 29.88 in1011.9 mb 0.00 in0.0 mm 0.00 in0.0 mm 0.01 in0.3 mm
06:25 AM 25.3°F-3.7°C 16.6°F-8.6°C 69% 14.0 mph 22.5 kmh 29.0 mph46.7 kmh 29.87 in1011.5 mb 0.00 in0.0 mm 0.00 in0.0 mm 0.01 in0.3 mm
06:20 AM 25.3°F-3.7°C 16.9°F-8.4°C 70% 16.0 mph NNE25.7 kmh NNE 27.0 mph43.5 kmh 29.87 in1011.5 mb 0.00 in0.0 mm 0.00 in0.0 mm 0.01 in0.3 mm
06:15 AM 25.4°F-3.7°C 16.7°F-8.5°C 69% 15.0 mph 24.1 kmh 28.0 mph45.1 kmh 29.88 in1011.9 mb 0.00 in0.0 mm 0.00 in0.0 mm 0.01 in0.3 mm
06:10 AM 25.5°F-3.6°C 16.4°F-8.7°C 68% 16.0 mph NE25.7 kmh NE 46.0 mph74.0 kmh 29.87 in1011.5 mb 0.00 in0.0 mm 0.00 in0.0 mm 0.01 in0.3 mm
06:05 AM 25.4°F-3.7°C 16.7°F-8.5°C 69% 14.0 mph NNE22.5 kmh NNE 29.0 mph46.7 kmh 29.86 in1011.2 mb 0.00 in0.0 mm 0.00 in0.0 mm 0.01 in0.3 mm
06:00 AM 25.4°F-3.7°C 16.3°F-8.7°C 68% 14.0 mph NE22.5 kmh NE 28.0 mph45.1 kmh 29.87 in1011.5 mb 0.00 in0.0 mm 0.00 in0.0 mm 0.01 in0.3 mm
05:55 AM 25.4°F-3.7°C 16.3°F-8.7°C 68% 13.0 mph NNE20.9 kmh NNE 25.0 mph40.2 kmh 29.87 in1011.5 mb 0.00 in0.0 mm 0.00 in0.0 mm 0.01 in0.3 mm
05:50 AM 25.4°F-3.7°C 16.7°F-8.5°C 69% 15.0 mph NNE24.1 kmh NNE 27.0 mph43.5 kmh 29.87 in1011.5 mb 0.00 in0.0 mm 0.00 in0.0 mm 0.01 in0.3 mm
05:45 AM 25.4°F-3.7°C 16.7°F-8.5°C 69% 14.0 mph NE22.5 kmh NE 30.0 mph48.3 kmh 29.86 in1011.2 mb 0.00 in0.0 mm 0.00 in0.0 mm 0.01 in0.3 mm
05:40 AM 25.4°F-3.7°C 16.3°F-8.7°C 68% 11.0 mph NE17.7 kmh NE 24.0 mph38.6 kmh 29.86 in1011.2 mb 0.00 in0.0 mm 0.00 in0.0 mm 0.01 in0.3 mm
05:35 AM 25.3°F-3.7°C 16.6°F-8.6°C 69% 12.0 mph NE19.3 kmh NE 32.0 mph51.5 kmh 29.86 in1011.2 mb 0.00 in0.0 mm 0.00 in0.0 mm 0.01 in0.3 mm
05:30 AM 25.3°F-3.7°C 16.6°F-8.6°C 69% 14.0 mph NNE22.5 kmh NNE 31.0 mph49.9 kmh 29.86 in1011.2 mb 0.00 in0.0 mm 0.00 in0.0 mm 0.01 in0.3 mm
05:25 AM 25.4°F-3.7°C 16.3°F-8.7°C 68% 15.0 mph NNE24.1 kmh NNE 41.0 mph66.0 kmh 29.85 in1010.8 mb 0.00 in0.0 mm 0.00 in0.0 mm 0.01 in0.3 mm
05:20 AM 25.3°F-3.7°C 16.2°F-8.8°C 68% 16.0 mph NE25.7 kmh NE 37.0 mph59.5 kmh 29.84 in1010.5 mb 0.00 in0.0 mm 0.00 in0.0 mm 0.01 in0.3 mm
05:15 AM 25.4°F-3.7°C 16.0°F-8.9°C 67% 15.0 mph NNE24.1 kmh NNE 35.0 mph56.3 kmh 29.84 in1010.5 mb 0.00 in0.0 mm 0.00 in0.0 mm 0.01 in0.3 mm
05:10 AM 25.5°F-3.6°C 16.1°F-8.8°C 67% 16.0 mph NE25.7 kmh NE 31.0 mph49.9 kmh 29.84 in1010.5 mb 0.00 in0.0 mm 0.00 in0.0 mm 0.01 in0.3 mm
05:05 AM 25.4°F-3.7°C 16.3°F-8.7°C 68% 16.0 mph NE25.7 kmh NE 30.0 mph48.3 kmh 29.84 in1010.5 mb 0.00 in0.0 mm 0.00 in0.0 mm 0.01 in0.3 mm
05:00 AM 25.5°F-3.6°C 16.4°F-8.7°C 68% 17.0 mph NE27.4 kmh NE 46.0 mph74.0 kmh 29.84 in1010.5 mb 0.00 in0.0 mm 0.00 in0.0 mm 0.01 in0.3 mm
04:55 AM 25.5°F-3.6°C 16.4°F-8.7°C 68% 16.0 mph NE25.7 kmh NE 33.0 mph53.1 kmh 29.84 in1010.5 mb 0.00 in0.0 mm 0.00 in0.0 mm 0.01 in0.3 mm
04:50 AM 25.4°F-3.7°C 16.3°F-8.7°C 68% 16.0 mph 25.7 kmh 35.0 mph56.3 kmh 29.84 in1010.5 mb 0.00 in0.0 mm 0.00 in0.0 mm 0.01 in0.3 mm
04:45 AM 25.6°F-3.6°C 16.5°F-8.6°C 68% 19.0 mph NNE30.6 kmh NNE 37.0 mph59.5 kmh 29.83 in1010.2 mb 0.00 in0.0 mm 0.00 in0.0 mm 0.01 in0.3 mm
04:40 AM 25.6°F-3.6°C 16.5°F-8.6°C 68% 18.0 mph NE29.0 kmh NE 36.0 mph57.9 kmh 29.83 in1010.2 mb 0.00 in0.0 mm 0.00 in0.0 mm 0.01 in0.3 mm
04:35 AM 25.6°F-3.6°C 16.5°F-8.6°C 68% 20.0 mph NE32.2 kmh NE 39.0 mph62.8 kmh 29.83 in1010.2 mb 0.00 in0.0 mm 0.00 in0.0 mm 0.01 in0.3 mm
04:30 AM 25.6°F-3.6°C 16.9°F-8.4°C 69% 16.0 mph NE25.7 kmh NE 37.0 mph59.5 kmh 29.83 in1010.2 mb 0.00 in0.0 mm 0.00 in0.0 mm 0.01 in0.3 mm
04:25 AM 25.5°F-3.6°C 16.8°F-8.4°C 69% 15.0 mph NE24.1 kmh NE 37.0 mph59.5 kmh 29.84 in1010.5 mb 0.00 in0.0 mm 0.00 in0.0 mm 0.01 in0.3 mm
04:20 AM 25.5°F-3.6°C 16.4°F-8.7°C 68% 14.0 mph NNE22.5 kmh NNE 26.0 mph41.8 kmh 29.82 in1009.8 mb 0.00 in0.0 mm 0.00 in0.0 mm 0.01 in0.3 mm
04:15 AM 25.6°F-3.6°C 16.5°F-8.6°C 68% 12.0 mph NE19.3 kmh NE 25.0 mph40.2 kmh 29.82 in1009.8 mb 0.00 in0.0 mm 0.00 in0.0 mm 0.01 in0.3 mm
04:10 AM 25.7°F-3.5°C 16.6°F-8.6°C 68% 21.0 mph NE33.8 kmh NE 38.0 mph61.2 kmh 29.83 in1010.2 mb 0.00 in0.0 mm 0.00 in0.0 mm 0.01 in0.3 mm
04:05 AM 25.6°F-3.6°C 16.5°F-8.6°C 68% 17.0 mph NE27.4 kmh NE 41.0 mph66.0 kmh 29.81 in1009.5 mb 0.00 in0.0 mm 0.00 in0.0 mm 0.01 in0.3 mm
04:00 AM 25.5°F-3.6°C 16.8°F-8.4°C 69% 16.0 mph 25.7 kmh 36.0 mph57.9 kmh 29.82 in1009.8 mb 0.01 in0.3 mm 0.00 in0.0 mm 0.01 in0.3 mm
03:55 AM 25.5°F-3.6°C 16.8°F-8.4°C 69% 14.0 mph NNE22.5 kmh NNE 28.0 mph45.1 kmh 29.82 in1009.8 mb 0.01 in0.3 mm 0.00 in0.0 mm 0.01 in0.3 mm
03:50 AM 25.6°F-3.6°C 16.5°F-8.6°C 68% 15.0 mph NNE24.1 kmh NNE 36.0 mph57.9 kmh 29.82 in1009.8 mb 0.01 in0.3 mm 0.00 in0.0 mm 0.01 in0.3 mm
03:45 AM 25.6°F-3.6°C 16.2°F-8.8°C 67% 16.0 mph NNE25.7 kmh NNE 34.0 mph54.7 kmh 29.82 in1009.8 mb 0.01 in0.3 mm 0.00 in0.0 mm 0.01 in0.3 mm
03:40 AM 25.7°F-3.5°C 16.3°F-8.7°C 67% 17.0 mph NNE27.4 kmh NNE 31.0 mph49.9 kmh 29.82 in1009.8 mb 0.01 in0.3 mm 0.00 in0.0 mm 0.01 in0.3 mm
03:35 AM 25.6°F-3.6°C 16.2°F-8.8°C 67% 14.0 mph NNE22.5 kmh NNE 32.0 mph51.5 kmh 29.82 in1009.8 mb 0.01 in0.3 mm 0.00 in0.0 mm 0.01 in0.3 mm
03:30 AM 25.6°F-3.6°C 16.2°F-8.8°C 67% 14.0 mph NE22.5 kmh NE 28.0 mph45.1 kmh 29.83 in1010.2 mb 0.01 in0.3 mm 0.00 in0.0 mm 0.01 in0.3 mm
03:25 AM 25.7°F-3.5°C 15.9°F-8.9°C 66% 18.0 mph NE29.0 kmh NE 36.0 mph57.9 kmh 29.83 in1010.2 mb 0.01 in0.3 mm 0.00 in0.0 mm 0.01 in0.3 mm
03:20 AM 25.6°F-3.6°C 16.2°F-8.8°C 67% 17.0 mph NNE27.4 kmh NNE 29.0 mph46.7 kmh 29.83 in1010.2 mb 0.01 in0.3 mm 0.00 in0.0 mm 0.01 in0.3 mm
03:15 AM 25.4°F-3.7°C 16.0°F-8.9°C 67% 16.0 mph NE25.7 kmh NE 31.0 mph49.9 kmh 29.84 in1010.5 mb 0.01 in0.3 mm 0.00 in0.0 mm 0.01 in0.3 mm
03:10 AM 25.4°F-3.7°C 16.7°F-8.5°C 69% 19.0 mph NE30.6 kmh NE 51.0 mph82.1 kmh 29.84 in1010.5 mb 0.01 in0.3 mm 0.00 in0.0 mm 0.01 in0.3 mm
03:05 AM 25.4°F-3.7°C 16.7°F-8.5°C 69% 16.0 mph NE25.7 kmh NE 51.0 mph82.1 kmh 29.84 in1010.5 mb 0.01 in0.3 mm 0.12 in3.0 mm 0.01 in0.3 mm
03:00 AM 25.4°F-3.7°C 16.7°F-8.5°C 69% 17.0 mph NNE27.4 kmh NNE 33.0 mph53.1 kmh 29.84 in1010.5 mb 0.00 in0.0 mm 0.00 in0.0 mm 0.00 in0.0 mm
02:55 AM 25.6°F-3.6°C 16.2°F-8.8°C 67% 18.0 mph NNE29.0 kmh NNE 35.0 mph56.3 kmh 29.84 in1010.5 mb 0.00 in0.0 mm 0.00 in0.0 mm 0.00 in0.0 mm
02:50 AM 25.8°F-3.4°C 16.0°F-8.9°C 66% 19.0 mph NNE30.6 kmh NNE 34.0 mph54.7 kmh 29.84 in1010.5 mb 0.00 in0.0 mm 0.00 in0.0 mm 0.00 in0.0 mm
02:45 AM 25.7°F-3.5°C 15.9°F-8.9°C 66% 15.0 mph NNE24.1 kmh NNE 32.0 mph51.5 kmh 29.84 in1010.5 mb 0.00 in0.0 mm 0.00 in0.0 mm 0.00 in0.0 mm
02:40 AM 25.7°F-3.5°C 15.9°F-8.9°C 66% 18.0 mph NE29.0 kmh NE 36.0 mph57.9 kmh 29.84 in1010.5 mb 0.00 in0.0 mm 0.00 in0.0 mm 0.00 in0.0 mm
02:35 AM 25.7°F-3.5°C 16.3°F-8.7°C 67% 17.0 mph NNE27.4 kmh NNE 29.0 mph46.7 kmh 29.84 in1010.5 mb 0.00 in0.0 mm 0.00 in0.0 mm 0.00 in0.0 mm
02:30 AM 25.8°F-3.4°C 16.0°F-8.9°C 66% 18.0 mph NE29.0 kmh NE 43.0 mph69.2 kmh 29.84 in1010.5 mb 0.00 in0.0 mm 0.00 in0.0 mm 0.00 in0.0 mm
02:25 AM 25.8°F-3.4°C 16.0°F-8.9°C 66% 20.0 mph NE32.2 kmh NE 38.0 mph61.2 kmh 29.85 in1010.8 mb 0.00 in0.0 mm 0.00 in0.0 mm 0.00 in0.0 mm
02:20 AM 25.8°F-3.4°C 16.4°F-8.7°C 67% 16.0 mph NNE25.7 kmh NNE 34.0 mph54.7 kmh 29.84 in1010.5 mb 0.00 in0.0 mm 0.00 in0.0 mm 0.00 in0.0 mm
02:15 AM 25.7°F-3.5°C 16.3°F-8.7°C 67% 16.0 mph NE25.7 kmh NE 32.0 mph51.5 kmh 29.84 in1010.5 mb 0.00 in0.0 mm 0.00 in0.0 mm 0.00 in0.0 mm
02:10 AM 25.7°F-3.5°C 16.6°F-8.6°C 68% 16.0 mph 25.7 kmh 32.0 mph51.5 kmh 29.85 in1010.8 mb 0.00 in0.0 mm 0.00 in0.0 mm 0.00 in0.0 mm
02:05 AM 25.7°F-3.5°C 16.6°F-8.6°C 68% 16.0 mph NE25.7 kmh NE 29.0 mph46.7 kmh 29.85 in1010.8 mb 0.00 in0.0 mm 0.00 in0.0 mm 0.00 in0.0 mm
02:00 AM 25.7°F-3.5°C 16.6°F-8.6°C 68% 15.0 mph 24.1 kmh 34.0 mph54.7 kmh 29.87 in1011.5 mb 0.00 in0.0 mm 0.00 in0.0 mm 0.00 in0.0 mm
01:55 AM 25.7°F-3.5°C 16.6°F-8.6°C 68% 15.0 mph 24.1 kmh 37.0 mph59.5 kmh 29.85 in1010.8 mb 0.00 in0.0 mm 0.00 in0.0 mm 0.00 in0.0 mm
01:50 AM 25.7°F-3.5°C 16.6°F-8.6°C 68% 18.0 mph 29.0 kmh 33.0 mph53.1 kmh 29.85 in1010.8 mb 0.00 in0.0 mm 0.00 in0.0 mm 0.00 in0.0 mm
01:45 AM 25.7°F-3.5°C 16.3°F-8.7°C 67% 18.0 mph NNE29.0 kmh NNE 43.0 mph69.2 kmh 29.84 in1010.5 mb 0.00 in0.0 mm 0.00 in0.0 mm 0.00 in0.0 mm
01:40 AM 25.6°F-3.6°C 16.5°F-8.6°C 68% 14.0 mph NE22.5 kmh NE 28.0 mph45.1 kmh 29.85 in1010.8 mb 0.00 in0.0 mm 0.00 in0.0 mm 0.00 in0.0 mm
01:35 AM 25.7°F-3.5°C 16.6°F-8.6°C 68% 14.0 mph NE22.5 kmh NE 31.0 mph49.9 kmh 29.85 in1010.8 mb 0.00 in0.0 mm 0.00 in0.0 mm 0.00 in0.0 mm
01:30 AM 25.7°F-3.5°C 16.6°F-8.6°C 68% 16.0 mph NE25.7 kmh NE 36.0 mph57.9 kmh 29.85 in1010.8 mb 0.00 in0.0 mm 0.00 in0.0 mm 0.00 in0.0 mm
01:25 AM 25.6°F-3.6°C 16.9°F-8.4°C 69% 14.0 mph NE22.5 kmh NE 32.0 mph51.5 kmh 29.85 in1010.8 mb 0.00 in0.0 mm 0.00 in0.0 mm 0.00 in0.0 mm
01:20 AM 25.6°F-3.6°C 16.9°F-8.4°C 69% 17.0 mph NNE27.4 kmh NNE 32.0 mph51.5 kmh 29.85 in1010.8 mb 0.00 in0.0 mm 0.00 in0.0 mm 0.00 in0.0 mm
01:15 AM 25.6°F-3.6°C 16.9°F-8.4°C 69% 20.0 mph NE32.2 kmh NE 37.0 mph59.5 kmh 29.85 in1010.8 mb 0.00 in0.0 mm 0.00 in0.0 mm 0.00 in0.0 mm
01:10 AM 25.7°F-3.5°C 17.0°F-8.3°C 69% 18.0 mph NE29.0 kmh NE 38.0 mph61.2 kmh 29.85 in1010.8 mb 0.00 in0.0 mm 0.00 in0.0 mm 0.00 in0.0 mm
01:05 AM 25.7°F-3.5°C 17.0°F-8.3°C 69% 14.0 mph NNE22.5 kmh NNE 34.0 mph54.7 kmh 29.85 in1010.8 mb 0.00 in0.0 mm 0.00 in0.0 mm 0.00 in0.0 mm
01:00 AM 25.8°F-3.4°C 16.7°F-8.5°C 68% 18.0 mph NE29.0 kmh NE 38.0 mph61.2 kmh 29.85 in1010.8 mb 0.00 in0.0 mm 0.00 in0.0 mm 0.00 in0.0 mm
12:55 AM 25.8°F-3.4°C 16.7°F-8.5°C 68% 21.0 mph NE33.8 kmh NE 36.0 mph57.9 kmh 29.85 in1010.8 mb 0.00 in0.0 mm 0.00 in0.0 mm 0.00 in0.0 mm
12:50 AM 25.8°F-3.4°C 16.7°F-8.5°C 68% 13.0 mph NE20.9 kmh NE 28.0 mph45.1 kmh 29.85 in1010.8 mb 0.00 in0.0 mm 0.00 in0.0 mm 0.00 in0.0 mm
12:45 AM 25.8°F-3.4°C 17.1°F-8.3°C 69% 14.0 mph NE22.5 kmh NE 34.0 mph54.7 kmh 29.86 in1011.2 mb 0.00 in0.0 mm 0.00 in0.0 mm 0.00 in0.0 mm
12:40 AM 25.8°F-3.4°C 17.4°F-8.1°C 70% 19.0 mph NE30.6 kmh NE 34.0 mph54.7 kmh 29.86 in1011.2 mb 0.00 in0.0 mm 0.00 in0.0 mm 0.00 in0.0 mm
12:35 AM 25.9°F-3.4°C 17.5°F-8.1°C 70% 17.0 mph NNE27.4 kmh NNE 35.0 mph56.3 kmh 29.86 in1011.2 mb 0.00 in0.0 mm 0.00 in0.0 mm 0.00 in0.0 mm
12:30 AM 25.9°F-3.4°C 17.2°F-8.2°C 69% 17.0 mph NE27.4 kmh NE 33.0 mph53.1 kmh 29.86 in1011.2 mb 0.00 in0.0 mm 0.00 in0.0 mm 0.00 in0.0 mm
12:25 AM 26.0°F-3.3°C 17.2°F-8.2°C 69% 20.0 mph NE32.2 kmh NE 47.0 mph75.6 kmh 29.85 in1010.8 mb 0.00 in0.0 mm 0.00 in0.0 mm 0.00 in0.0 mm
12:20 AM 26.0°F-3.3°C 17.2°F-8.2°C 69% 18.0 mph NNE29.0 kmh NNE 34.0 mph54.7 kmh 29.86 in1011.2 mb 0.00 in0.0 mm 0.00 in0.0 mm 0.00 in0.0 mm
12:15 AM 26.1°F-3.3°C 17.0°F-8.3°C 68% 18.0 mph NE29.0 kmh NE 36.0 mph57.9 kmh 29.86 in1011.2 mb 0.00 in0.0 mm 0.00 in0.0 mm 0.00 in0.0 mm
12:10 AM 26.3°F-3.2°C 16.9°F-8.4°C 67% 20.0 mph NE32.2 kmh NE 39.0 mph62.8 kmh 29.85 in1010.8 mb 0.00 in0.0 mm 0.00 in0.0 mm 0.00 in0.0 mm
12:05 AM 26.4°F-3.1°C 17.0°F-8.3°C 67% 17.0 mph NE27.4 kmh NE 31.0 mph49.9 kmh 29.86 in1011.2 mb 0.00 in0.0 mm 0.00 in0.0 mm 0.00 in0.0 mm
12:00 AM 26.5°F-3.1°C 16.7°F-8.5°C 66% 15.0 mph NE24.1 kmh NE 29.0 mph46.7 kmh 29.85 in1010.8 mb 0.00 in0.0 mm 0.00 in0.0 mm 0.02 in0.5 mm